createdAt,value
2022-11-15T00:00:57.164Z,4.77
2022-11-15T00:03:28.620Z,4.77
2022-11-15T00:05:55.587Z,4.63
2022-11-15T00:08:22.394Z,4.60
2022-11-15T00:11:00.304Z,4.63
2022-11-15T00:13:27.439Z,4.77
2022-11-15T00:15:57.277Z,4.60
2022-11-15T00:18:23.959Z,4.53
2022-11-15T00:20:53.668Z,4.23
2022-11-15T00:23:20.657Z,4.43
2022-11-15T00:25:47.419Z,3.88
2022-11-15T00:28:14.145Z,4.00
2022-11-15T00:30:40.826Z,4.20
2022-11-15T00:33:07.894Z,4.17
2022-11-15T00:35:35.448Z,4.27
2022-11-15T00:38:03.498Z,3.85
2022-11-15T00:40:30.623Z,4.20
2022-11-15T00:42:57.609Z,4.27
2022-11-15T00:45:25.000Z,4.17
2022-11-15T00:47:52.415Z,4.30
2022-11-15T00:50:19.663Z,4.87
2022-11-15T00:52:46.586Z,4.68
2022-11-15T00:55:18.513Z,5.05
2022-11-15T00:57:45.385Z,5.03
2022-11-15T01:00:12.867Z,4.50
2022-11-15T01:02:39.935Z,4.97
2022-11-15T01:05:07.358Z,4.47
2022-11-15T01:07:34.395Z,5.78
2022-11-15T01:10:01.320Z,4.35
2022-11-15T01:12:28.464Z,4.77
2022-11-15T01:14:55.549Z,5.40
2022-11-15T01:17:22.304Z,4.60
2022-11-15T01:19:49.297Z,4.75
2022-11-15T01:22:16.172Z,4.80
2022-11-15T01:24:42.995Z,4.97
2022-11-15T01:27:10.059Z,5.05
2022-11-15T01:29:36.863Z,5.10
2022-11-15T01:32:03.655Z,4.78
2022-11-15T01:34:30.416Z,5.50
2022-11-15T01:36:57.110Z,5.13
2022-11-15T01:39:23.872Z,5.13
2022-11-15T01:41:50.663Z,4.63
2022-11-15T01:44:35.465Z,4.70
2022-11-15T01:47:05.152Z,4.67
2022-11-15T01:49:34.703Z,4.93
2022-11-15T01:52:03.532Z,5.00
2022-11-15T01:54:30.770Z,5.47
2022-11-15T01:57:02.753Z,5.15
2022-11-15T01:59:29.931Z,5.10
2022-11-15T02:01:56.960Z,5.05
2022-11-15T02:04:42.584Z,4.78
2022-11-15T02:07:13.319Z,4.93
2022-11-15T02:09:40.866Z,5.10
2022-11-15T02:12:09.993Z,4.90
2022-11-15T02:14:39.217Z,4.55
2022-11-15T02:17:27.194Z,4.50
2022-11-15T02:20:25.543Z,4.80
2022-11-15T02:23:31.273Z,5.03
2022-11-15T02:26:08.504Z,4.65
2022-11-15T02:29:11.232Z,5.00
2022-11-15T02:31:54.570Z,4.45
2022-11-15T02:34:52.871Z,5.10
2022-11-15T02:37:40.268Z,4.63
2022-11-15T02:40:28.640Z,5.07
2022-11-15T02:43:19.849Z,5.15
2022-11-15T02:45:52.432Z,5.03
2022-11-15T02:48:20.016Z,5.23
2022-11-15T02:50:48.010Z,4.90
2022-11-15T02:53:16.153Z,4.72
2022-11-15T02:55:49.011Z,5.03
2022-11-15T02:58:39.876Z,5.68
2022-11-15T03:01:09.427Z,5.00
2022-11-15T03:04:11.185Z,5.30
2022-11-15T03:06:57.138Z,5.00
2022-11-15T03:09:39.294Z,5.20
2022-11-15T03:12:18.840Z,4.87
2022-11-15T03:15:01.452Z,4.63
2022-11-15T03:17:39.154Z,4.60
2022-11-15T03:20:08.489Z,5.10
2022-11-15T03:22:38.672Z,4.47
2022-11-15T03:25:09.001Z,5.03
2022-11-15T03:27:41.138Z,4.38
2022-11-15T03:30:09.536Z,4.03
2022-11-15T03:32:42.861Z,4.10
2022-11-15T03:35:15.092Z,4.05
2022-11-15T03:38:12.348Z,4.50
2022-11-15T03:40:42.194Z,4.20
2022-11-15T03:43:43.915Z,4.38
2022-11-15T03:46:35.238Z,3.60
2022-11-15T03:49:18.211Z,4.50
2022-11-15T03:51:44.978Z,4.65
2022-11-15T03:54:13.274Z,4.47
2022-11-15T03:56:39.941Z,4.43
2022-11-15T03:59:06.563Z,4.38
2022-11-15T04:01:36.753Z,4.55
2022-11-15T04:04:03.446Z,4.60
2022-11-15T04:06:30.090Z,4.15
2022-11-15T04:08:56.726Z,4.28
2022-11-15T04:11:23.371Z,4.47
2022-11-15T04:13:49.981Z,4.50
2022-11-15T04:16:16.633Z,4.03
2022-11-15T04:18:43.269Z,4.28
2022-11-15T04:21:29.002Z,4.40
2022-11-15T04:23:55.733Z,4.15
2022-11-15T04:26:24.027Z,4.03
2022-11-15T04:29:09.118Z,4.00
2022-11-15T04:31:36.069Z,3.58
2022-11-15T04:34:02.750Z,4.03
2022-11-15T04:36:48.354Z,3.90
2022-11-15T04:39:15.031Z,3.25
2022-11-15T04:41:41.736Z,3.30
2022-11-15T04:44:08.507Z,3.77
2022-11-15T04:46:35.174Z,3.60
2022-11-15T04:49:01.869Z,3.28
2022-11-15T04:51:28.578Z,4.00
2022-11-15T04:53:55.240Z,3.58
2022-11-15T04:56:21.888Z,3.30
2022-11-15T04:58:51.746Z,3.60
2022-11-15T05:01:18.702Z,3.33
2022-11-15T05:04:04.733Z,3.38
2022-11-15T05:06:31.417Z,3.60
2022-11-15T05:08:58.372Z,3.58
2022-11-15T05:11:25.429Z,3.60
2022-11-15T05:13:52.150Z,3.97
2022-11-15T05:16:18.870Z,3.50
2022-11-15T05:18:45.566Z,3.53
2022-11-15T05:21:14.752Z,3.63
2022-11-15T05:23:42.190Z,4.03
2022-11-15T05:26:09.866Z,3.78
2022-11-15T05:28:37.540Z,3.70
2022-11-15T05:31:09.440Z,3.88
2022-11-15T05:33:38.461Z,3.38
2022-11-15T05:36:15.198Z,3.70
2022-11-15T05:38:42.770Z,3.80
2022-11-15T05:41:10.042Z,4.45
2022-11-15T05:43:39.804Z,6.57
2022-11-15T05:46:06.998Z,5.80
2022-11-15T05:48:36.639Z,5.15
2022-11-15T05:51:05.767Z,5.07
2022-11-15T05:53:33.127Z,4.97
2022-11-15T05:56:00.526Z,5.30
2022-11-15T05:58:27.301Z,5.07
2022-11-15T06:00:55.649Z,4.57
2022-11-15T06:03:22.308Z,4.32
2022-11-15T06:05:48.936Z,4.28
2022-11-15T06:08:15.624Z,4.05
2022-11-15T06:10:42.325Z,4.00
2022-11-15T06:13:09.022Z,3.80
2022-11-15T06:15:35.921Z,3.80
2022-11-15T06:18:02.590Z,3.83
2022-11-15T06:20:30.561Z,4.25
2022-11-15T06:23:02.060Z,4.43
2022-11-15T06:25:29.897Z,3.38
2022-11-15T06:27:58.514Z,3.63
2022-11-15T06:30:27.363Z,3.63
2022-11-15T06:33:00.886Z,3.53
2022-11-15T06:35:27.869Z,3.63
2022-11-15T06:37:54.638Z,3.80
2022-11-15T06:40:21.367Z,3.92
2022-11-15T06:42:48.135Z,3.83
2022-11-15T06:45:14.872Z,4.72
2022-11-15T06:47:47.952Z,4.38
2022-11-15T06:50:14.930Z,4.60
2022-11-15T06:52:41.586Z,4.25
2022-11-15T06:55:09.336Z,3.72
2022-11-15T06:57:37.043Z,4.22
2022-11-15T07:00:07.419Z,4.90
2022-11-15T07:02:34.083Z,4.88
2022-11-15T07:05:00.756Z,5.10
2022-11-15T07:07:27.544Z,4.97
2022-11-15T07:09:54.379Z,5.40
2022-11-15T07:12:21.072Z,5.18
2022-11-15T07:14:47.712Z,5.00
2022-11-15T07:17:14.517Z,5.15
2022-11-15T07:19:41.238Z,5.38
2022-11-15T07:22:08.007Z,4.72
2022-11-15T07:24:34.751Z,4.15
2022-11-15T07:27:01.461Z,4.45
2022-11-15T07:29:28.318Z,4.75
2022-11-15T07:31:55.287Z,4.78
2022-11-15T07:34:22.241Z,5.15
2022-11-15T07:36:48.943Z,4.63
2022-11-15T07:39:15.757Z,4.47
2022-11-15T07:41:42.507Z,4.72
2022-11-15T07:44:09.191Z,4.97
2022-11-15T07:46:35.870Z,5.10
2022-11-15T07:49:02.582Z,5.18
2022-11-15T07:51:29.380Z,5.30
2022-11-15T07:53:56.106Z,5.07
2022-11-15T07:56:23.079Z,4.68
2022-11-15T07:58:51.240Z,4.72
2022-11-15T08:01:18.049Z,5.07
2022-11-15T08:03:44.839Z,4.82
2022-11-15T08:06:11.533Z,4.55
2022-11-15T08:08:38.318Z,4.95
2022-11-15T08:11:05.135Z,4.40
2022-11-15T08:13:32.322Z,5.18
2022-11-15T08:16:06.638Z,4.63
2022-11-15T08:18:33.517Z,4.03
2022-11-15T08:21:01.948Z,4.30
2022-11-15T08:23:29.072Z,3.88
2022-11-15T08:26:02.029Z,4.25
2022-11-15T08:28:30.459Z,4.13
2022-11-15T08:30:57.197Z,3.80
2022-11-15T08:33:24.321Z,4.00
2022-11-15T08:35:50.965Z,4.22
2022-11-15T08:38:17.690Z,4.53
2022-11-15T08:40:44.343Z,4.32
2022-11-15T08:43:10.991Z,3.80
2022-11-15T08:45:37.697Z,4.32
2022-11-15T08:48:05.005Z,4.20
2022-11-15T08:50:31.938Z,3.55
2022-11-15T08:52:58.903Z,4.22
2022-11-15T08:55:25.531Z,3.30
2022-11-15T08:57:52.298Z,4.20
2022-11-15T09:00:20.850Z,4.07
2022-11-15T09:02:47.605Z,3.85
2022-11-15T09:05:14.301Z,4.03
2022-11-15T09:07:41.002Z,3.80
2022-11-15T09:10:08.082Z,3.53
2022-11-15T09:12:34.980Z,3.53
2022-11-15T09:15:01.731Z,3.75
2022-11-15T09:17:28.409Z,3.63
2022-11-15T09:19:55.086Z,3.90
2022-11-15T09:22:22.028Z,3.75
2022-11-15T09:24:48.674Z,4.00
2022-11-15T09:27:15.472Z,3.67
2022-11-15T09:29:42.120Z,3.80
2022-11-15T09:32:08.827Z,3.72
2022-11-15T09:34:35.479Z,3.67
2022-11-15T09:37:02.148Z,3.88
2022-11-15T09:39:28.773Z,3.95
2022-11-15T09:42:06.999Z,3.70
2022-11-15T09:44:44.710Z,3.80
2022-11-15T09:47:43.257Z,4.10
2022-11-15T09:50:16.008Z,4.60
2022-11-15T09:52:46.175Z,3.97
2022-11-15T09:55:17.244Z,4.13
2022-11-15T09:57:55.458Z,3.60
2022-11-15T10:00:46.337Z,3.72
2022-11-15T10:03:28.653Z,3.70
2022-11-15T10:06:00.059Z,4.00
2022-11-15T10:08:55.630Z,4.00
2022-11-15T10:11:38.217Z,3.80
2022-11-15T10:14:27.382Z,3.47
2022-11-15T10:17:19.350Z,3.55
2022-11-15T10:20:05.937Z,3.20
2022-11-15T10:22:47.926Z,3.45
2022-11-15T10:25:17.405Z,3.35
2022-11-15T10:27:46.547Z,3.22
2022-11-15T10:30:17.299Z,3.55
2022-11-15T10:32:46.100Z,3.25
2022-11-15T10:35:30.591Z,3.38
2022-11-15T10:38:26.758Z,3.60
2022-11-15T10:41:08.611Z,3.97
2022-11-15T10:43:35.267Z,4.75
2022-11-15T10:46:45.072Z,4.03
2022-11-15T10:49:30.262Z,4.03
2022-11-15T10:52:18.135Z,4.10
2022-11-15T10:54:49.336Z,3.40
2022-11-15T10:57:19.491Z,3.80
2022-11-15T11:00:08.058Z,3.83
2022-11-15T11:02:56.545Z,3.45
2022-11-15T11:05:43.097Z,3.75
2022-11-15T11:08:12.889Z,3.60
2022-11-15T11:11:01.332Z,3.97
2022-11-15T11:13:34.134Z,3.30
2022-11-15T11:16:15.565Z,3.63
2022-11-15T11:18:51.338Z,3.70
2022-11-15T11:21:35.490Z,2.92
2022-11-15T11:24:18.498Z,3.10
2022-11-15T11:26:57.133Z,3.42
2022-11-15T11:29:33.070Z,3.00
2022-11-15T11:32:14.499Z,2.90
2022-11-15T11:34:59.679Z,2.40
2022-11-15T11:37:53.814Z,3.53
2022-11-15T11:40:31.984Z,3.35
2022-11-15T11:43:26.507Z,2.47
2022-11-15T11:46:20.808Z,2.40
2022-11-15T11:48:57.271Z,2.45
2022-11-15T11:52:04.561Z,2.78
2022-11-15T11:54:54.928Z,2.70
2022-11-15T11:57:34.473Z,2.47
2022-11-15T12:00:29.324Z,3.13
2022-11-15T12:03:30.165Z,3.30
2022-11-15T12:06:22.900Z,3.38
2022-11-15T12:09:34.030Z,4.10
2022-11-15T12:12:32.835Z,3.40
2022-11-15T12:15:15.042Z,3.35
2022-11-15T12:17:42.964Z,2.92
2022-11-15T12:20:22.759Z,3.00
2022-11-15T12:22:55.292Z,2.80
2022-11-15T12:25:36.182Z,2.80
2022-11-15T12:28:30.506Z,2.92
2022-11-15T12:31:13.745Z,2.92
2022-11-15T12:33:45.708Z,2.80
2022-11-15T12:36:21.437Z,2.85
2022-11-15T12:38:59.565Z,2.65
2022-11-15T12:41:40.974Z,2.70
2022-11-15T12:44:34.711Z,2.92
2022-11-15T12:47:10.595Z,2.97
2022-11-15T12:49:37.279Z,3.03
2022-11-15T12:52:05.204Z,2.97
2022-11-15T12:54:37.786Z,3.10
2022-11-15T12:57:04.476Z,3.33
2022-11-15T13:00:02.724Z,2.90
2022-11-15T13:02:34.685Z,2.75
2022-11-15T13:05:16.854Z,2.45
2022-11-15T13:07:43.726Z,3.00
2022-11-15T13:10:13.439Z,3.25
2022-11-15T13:12:45.789Z,3.08
2022-11-15T13:15:18.264Z,3.17
2022-11-15T13:17:48.779Z,3.42
2022-11-15T13:20:15.756Z,3.85
2022-11-15T13:22:53.372Z,3.30
2022-11-15T13:25:48.956Z,3.53
2022-11-15T13:28:15.599Z,3.22
2022-11-15T13:30:57.442Z,3.58
2022-11-15T13:33:36.380Z,3.67
2022-11-15T13:36:24.185Z,3.25
2022-11-15T13:39:13.836Z,3.80
2022-11-15T13:41:50.280Z,3.00
2022-11-15T13:44:32.303Z,3.05
2022-11-15T13:47:16.735Z,2.80
2022-11-15T13:49:43.681Z,3.20
2022-11-15T13:52:15.511Z,2.97
2022-11-15T13:54:46.938Z,3.65
2022-11-15T13:57:30.247Z,3.78
2022-11-15T14:00:01.781Z,3.20
2022-11-15T14:02:33.579Z,3.53
2022-11-15T14:05:16.499Z,2.78
2022-11-15T14:07:54.932Z,3.28
2022-11-15T14:10:31.758Z,3.22
2022-11-15T14:12:59.690Z,3.10
2022-11-15T14:15:33.311Z,3.58
2022-11-15T14:18:00.992Z,3.50
2022-11-15T14:20:29.444Z,3.30
2022-11-15T14:22:58.654Z,3.53
2022-11-15T14:25:28.063Z,3.50
2022-11-15T14:28:16.023Z,3.72
2022-11-15T14:30:48.068Z,3.15
2022-11-15T14:33:31.547Z,3.17
2022-11-15T14:36:03.244Z,3.13
2022-11-15T14:38:30.902Z,3.17
2022-11-15T14:40:58.174Z,3.30
2022-11-15T14:43:25.249Z,3.22
2022-11-15T14:45:51.970Z,3.25
2022-11-15T14:48:18.604Z,2.95
2022-11-15T14:50:45.518Z,3.28
2022-11-15T14:53:19.753Z,3.40
2022-11-15T14:55:46.396Z,3.00
2022-11-15T14:58:13.080Z,2.97
2022-11-15T15:00:41.614Z,3.38
2022-11-15T15:03:08.341Z,2.78
2022-11-15T15:05:41.628Z,2.88
2022-11-15T15:08:09.001Z,2.78
2022-11-15T15:10:44.879Z,3.10
2022-11-15T15:13:23.214Z,2.92
2022-11-15T15:15:51.573Z,2.60
2022-11-15T15:18:19.092Z,2.80
2022-11-15T15:20:55.284Z,3.00
2022-11-15T15:23:21.980Z,3.28
2022-11-15T15:25:49.968Z,2.75
2022-11-15T15:28:17.018Z,2.90
2022-11-15T15:30:43.748Z,2.83
2022-11-15T15:33:10.375Z,3.00
2022-11-15T15:35:37.107Z,2.65
2022-11-15T15:38:04.387Z,3.05
2022-11-15T15:40:33.211Z,3.13
2022-11-15T15:43:00.751Z,3.60
2022-11-15T15:45:28.639Z,3.50
2022-11-15T15:47:55.550Z,3.92
2022-11-15T15:50:26.651Z,3.00
2022-11-15T15:52:55.531Z,3.10
2022-11-15T15:55:22.814Z,3.58
2022-11-15T15:57:50.124Z,4.40
2022-11-15T16:00:18.748Z,4.00
2022-11-15T16:02:45.595Z,5.60
2022-11-15T16:05:13.450Z,5.10
2022-11-15T16:07:41.038Z,5.60
2022-11-15T16:10:28.382Z,6.15
2022-11-15T16:12:56.545Z,4.32
2022-11-15T16:15:25.633Z,4.22
2022-11-15T16:18:00.681Z,6.38
2022-11-15T16:20:43.748Z,5.80
2022-11-15T16:23:12.489Z,6.30
2022-11-15T16:26:03.973Z,6.57
2022-11-15T16:28:33.457Z,5.00
2022-11-15T16:31:20.995Z,5.40
2022-11-15T16:33:47.976Z,4.95
2022-11-15T16:36:29.910Z,4.85
2022-11-15T16:38:57.681Z,5.22
2022-11-15T16:41:24.328Z,6.55
2022-11-15T16:43:51.365Z,5.78
2022-11-15T16:46:20.820Z,7.85
2022-11-15T16:48:48.520Z,7.70
2022-11-15T16:51:16.049Z,7.43
2022-11-15T16:53:43.798Z,6.47
2022-11-15T16:56:22.717Z,6.63
2022-11-15T16:58:49.425Z,6.00
2022-11-15T17:01:46.776Z,5.60
2022-11-15T17:04:14.490Z,7.53
2022-11-15T17:06:42.577Z,9.18
2022-11-15T17:09:20.658Z,14.32
2022-11-15T17:11:47.389Z,8.40
2022-11-15T17:14:14.089Z,8.18
2022-11-15T17:16:42.598Z,7.07
2022-11-15T17:19:17.413Z,6.70
2022-11-15T17:21:45.543Z,7.68
2022-11-15T17:24:12.415Z,7.97
2022-11-15T17:26:40.928Z,7.57
2022-11-15T17:29:08.108Z,7.32
2022-11-15T17:31:38.346Z,7.40
2022-11-15T17:34:06.383Z,8.82
2022-11-15T17:36:33.726Z,10.10
2022-11-15T17:39:00.544Z,8.70
2022-11-15T17:41:28.681Z,7.65
2022-11-15T17:44:00.014Z,7.45
2022-11-15T17:46:28.372Z,7.72
2022-11-15T17:48:56.405Z,6.97
2022-11-15T17:51:24.081Z,7.70
2022-11-15T17:53:51.471Z,6.93
2022-11-15T17:56:20.426Z,6.85
2022-11-15T17:58:55.744Z,6.70
2022-11-15T18:01:23.587Z,7.60
2022-11-15T18:03:50.916Z,8.68
2022-11-15T18:06:19.060Z,10.55
2022-11-15T18:08:47.028Z,10.90
2022-11-15T18:11:16.699Z,12.65
2022-11-15T18:13:50.895Z,12.70
2022-11-15T18:16:21.592Z,13.73
2022-11-15T18:18:48.966Z,11.75
2022-11-15T18:21:18.770Z,11.38
2022-11-15T18:23:46.685Z,11.05
2022-11-15T18:26:15.611Z,11.52
2022-11-15T18:28:47.650Z,11.20
2022-11-15T18:31:18.570Z,11.18
2022-11-15T18:33:45.970Z,11.95
2022-11-15T18:36:15.258Z,11.73
2022-11-15T18:38:42.177Z,10.57
2022-11-15T18:41:14.724Z,10.95
2022-11-15T18:43:41.346Z,10.80
2022-11-15T18:46:11.189Z,10.13
2022-11-15T18:48:39.761Z,8.40
2022-11-15T18:51:17.974Z,9.07
2022-11-15T18:53:45.415Z,8.70
2022-11-15T18:56:17.335Z,8.95
2022-11-15T18:58:49.123Z,8.55
2022-11-15T19:01:21.690Z,8.70
2022-11-15T19:03:50.667Z,10.50
2022-11-15T19:06:20.032Z,10.68
2022-11-15T19:08:49.381Z,15.77
2022-11-15T19:11:18.866Z,12.93
2022-11-15T19:13:46.390Z,11.32
2022-11-15T19:16:15.266Z,11.00
2022-11-15T19:18:42.504Z,11.60
2022-11-15T19:21:14.884Z,21.83
2022-11-15T19:23:43.328Z,19.77
2022-11-15T19:26:15.752Z,26.20
2022-11-15T19:28:43.229Z,26.60
2022-11-15T19:31:15.434Z,18.10
2022-11-15T19:33:43.532Z,17.38
2022-11-15T19:36:20.464Z,16.00
2022-11-15T19:38:47.497Z,14.27
2022-11-15T19:41:17.377Z,12.10
2022-11-15T19:43:44.758Z,10.30
2022-11-15T19:46:12.289Z,11.20
2022-11-15T19:48:39.630Z,9.52
2022-11-15T19:51:10.314Z,9.70
2022-11-15T19:53:37.907Z,9.10
2022-11-15T19:56:07.561Z,10.10
2022-11-15T19:58:34.764Z,10.13
2022-11-15T20:01:04.102Z,10.65
2022-11-15T20:03:32.672Z,9.73
2022-11-15T20:06:23.753Z,9.13
2022-11-15T20:08:50.808Z,9.38
2022-11-15T20:11:18.696Z,9.10
2022-11-15T20:13:45.962Z,8.45
2022-11-15T20:16:17.796Z,8.75
2022-11-15T20:18:44.625Z,8.38
2022-11-15T20:21:11.601Z,7.97
2022-11-15T20:23:39.183Z,10.25
2022-11-15T20:26:07.378Z,10.30
2022-11-15T20:28:35.952Z,8.68
2022-11-15T20:31:02.874Z,9.57
2022-11-15T20:33:29.586Z,8.85
2022-11-15T20:35:56.350Z,9.18
2022-11-15T20:38:23.079Z,13.63
2022-11-15T20:40:53.600Z,11.07
2022-11-15T20:43:22.746Z,8.95
2022-11-15T20:45:50.482Z,8.70
2022-11-15T20:48:17.637Z,8.63
2022-11-15T20:50:45.521Z,8.50
2022-11-15T20:53:17.010Z,8.20
2022-11-15T20:55:48.252Z,8.23
2022-11-15T20:58:16.522Z,7.85
2022-11-15T21:00:44.844Z,8.75
2022-11-15T21:03:13.155Z,7.95
2022-11-15T21:05:42.606Z,8.23
2022-11-15T21:08:10.597Z,8.15
2022-11-15T21:10:56.384Z,7.95
2022-11-15T21:13:23.086Z,8.52
2022-11-15T21:15:49.958Z,8.02
2022-11-15T21:18:16.673Z,8.25
2022-11-15T21:20:43.528Z,7.90
2022-11-15T21:23:10.197Z,7.75
2022-11-15T21:25:36.919Z,8.32
2022-11-15T21:28:03.803Z,7.70
2022-11-15T21:30:31.411Z,7.82
2022-11-15T21:32:58.108Z,7.28
2022-11-15T21:35:24.850Z,7.70
2022-11-15T21:37:56.413Z,8.35
2022-11-15T21:40:24.278Z,7.70
2022-11-15T21:42:51.000Z,7.70
2022-11-15T21:45:17.661Z,7.40
2022-11-15T21:47:46.448Z,7.72
2022-11-15T21:50:13.934Z,7.03
2022-11-15T21:52:41.208Z,6.53
2022-11-15T21:55:08.880Z,7.65
2022-11-15T21:57:35.609Z,7.97
2022-11-15T22:00:20.798Z,7.78
2022-11-15T22:02:47.440Z,7.32
2022-11-15T22:05:14.124Z,7.57
2022-11-15T22:07:40.795Z,6.93
2022-11-15T22:10:07.952Z,7.97
2022-11-15T22:12:34.630Z,8.07
2022-11-15T22:15:01.275Z,7.97
2022-11-15T22:17:47.891Z,8.05
2022-11-15T22:20:37.602Z,7.50
2022-11-15T22:23:02.170Z,7.38
2022-11-15T22:25:29.799Z,7.53
2022-11-15T22:27:56.771Z,7.68
2022-11-15T22:30:24.305Z,7.93
2022-11-15T22:32:50.988Z,7.55
2022-11-15T22:35:17.730Z,7.63
2022-11-15T22:37:44.413Z,8.02
2022-11-15T22:40:11.148Z,8.38
2022-11-15T22:42:37.832Z,7.93
2022-11-15T22:45:04.945Z,8.32
2022-11-15T22:47:31.611Z,7.47
2022-11-15T22:49:58.297Z,9.32
2022-11-15T22:52:25.038Z,8.77
2022-11-15T22:54:51.755Z,7.85
2022-11-15T22:57:18.494Z,7.95
2022-11-15T22:59:45.492Z,8.20
2022-11-15T23:02:12.166Z,9.02
2022-11-15T23:04:38.808Z,8.73
2022-11-15T23:07:05.576Z,9.05
2022-11-15T23:09:32.382Z,7.90
2022-11-15T23:12:17.981Z,8.35
2022-11-15T23:14:44.660Z,8.85
2022-11-15T23:17:11.283Z,9.05
2022-11-15T23:19:37.924Z,8.90
2022-11-15T23:22:23.364Z,9.45
2022-11-15T23:24:51.682Z,9.88
2022-11-15T23:27:20.013Z,9.18
2022-11-15T23:30:06.736Z,10.05
2022-11-15T23:32:51.949Z,8.60
2022-11-15T23:35:18.810Z,9.23
2022-11-15T23:37:45.657Z,9.30
2022-11-15T23:40:12.873Z,9.43
2022-11-15T23:42:39.772Z,8.93
2022-11-15T23:45:07.116Z,9.40
2022-11-15T23:47:35.550Z,9.43
2022-11-15T23:50:02.425Z,9.80
2022-11-15T23:52:29.123Z,10.00
2022-11-15T23:54:55.753Z,9.43
2022-11-15T23:57:23.167Z,10.10
2022-11-15T23:59:49.824Z,10.05
